createdAt,value
2023-03-31T00:00:50.628Z,0
2023-03-31T00:02:06.689Z,0
2023-03-31T00:03:23.001Z,0
2023-03-31T00:04:39.081Z,0
2023-03-31T00:05:55.379Z,0
2023-03-31T00:07:10.463Z,0
2023-03-31T00:08:26.654Z,0
2023-03-31T00:09:42.850Z,0
2023-03-31T00:10:59.157Z,0
2023-03-31T00:12:15.220Z,0
2023-03-31T00:13:31.533Z,0
2023-03-31T00:14:47.727Z,0
2023-03-31T00:16:03.907Z,0
2023-03-31T00:17:19.974Z,0
2023-03-31T00:18:36.289Z,0
2023-03-31T00:19:52.342Z,0
2023-03-31T00:21:08.525Z,0
2023-03-31T00:22:24.851Z,0
2023-03-31T00:23:40.044Z,0
2023-03-31T00:24:56.243Z,0
2023-03-31T00:26:12.439Z,0
2023-03-31T00:27:28.477Z,0
2023-03-31T00:28:44.796Z,0
2023-03-31T00:30:00.995Z,0
2023-03-31T00:31:17.174Z,0
2023-03-31T00:32:33.224Z,0
2023-03-31T00:33:49.410Z,0
2023-03-31T00:35:05.610Z,0
2023-03-31T00:36:21.930Z,0
2023-03-31T00:37:38.108Z,0
2023-03-31T00:38:54.296Z,0
2023-03-31T00:40:09.507Z,0
2023-03-31T00:41:25.689Z,0
2023-03-31T00:42:41.735Z,0
2023-03-31T00:43:58.059Z,0
2023-03-31T00:45:14.122Z,0
2023-03-31T00:46:30.301Z,0
2023-03-31T00:47:46.630Z,0
2023-03-31T00:49:02.818Z,0
2023-03-31T00:50:18.857Z,0
2023-03-31T00:51:35.191Z,0
2023-03-31T00:52:51.373Z,0
2023-03-31T00:54:07.553Z,0
2023-03-31T00:55:23.613Z,0
2023-03-31T00:56:38.944Z,0
2023-03-31T00:57:55.006Z,0
2023-03-31T00:59:11.185Z,0
2023-03-31T01:00:27.521Z,0
2023-03-31T01:01:43.712Z,0
2023-03-31T01:02:59.894Z,0
2023-03-31T01:04:16.074Z,0
2023-03-31T01:05:32.120Z,0
2023-03-31T01:06:48.315Z,0
2023-03-31T01:08:04.641Z,0
2023-03-31T01:09:20.836Z,0
2023-03-31T01:10:37.021Z,0
2023-03-31T01:11:53.055Z,0
2023-03-31T01:13:08.274Z,0
2023-03-31T01:14:24.598Z,0
2023-03-31T01:15:40.784Z,0
2023-03-31T01:16:56.816Z,0
2023-03-31T01:18:13.158Z,0
2023-03-31T01:19:29.334Z,0
2023-03-31T01:20:45.379Z,0
2023-03-31T01:22:01.715Z,0
2023-03-31T01:23:17.907Z,0
2023-03-31T01:24:33.953Z,0
2023-03-31T01:25:50.278Z,0
2023-03-31T01:27:06.328Z,0
2023-03-31T01:28:22.517Z,0
2023-03-31T01:29:37.864Z,0
2023-03-31T01:30:53.908Z,0
2023-03-31T01:32:10.085Z,0
2023-03-31T01:33:26.420Z,0
2023-03-31T01:34:42.470Z,0
2023-03-31T01:35:58.656Z,0
2023-03-31T01:37:14.823Z,0
2023-03-31T01:38:31.025Z,0
2023-03-31T01:39:47.353Z,0
2023-03-31T01:41:03.536Z,0
2023-03-31T01:42:19.731Z,0
2023-03-31T01:43:35.773Z,0
2023-03-31T01:44:51.966Z,0
2023-03-31T01:46:07.155Z,0
2023-03-31T01:47:23.487Z,0
2023-03-31T01:48:39.690Z,0
2023-03-31T01:49:55.724Z,0
2023-03-31T01:51:11.904Z,0
2023-03-31T01:52:28.244Z,0
2023-03-31T01:53:44.280Z,0
2023-03-31T01:55:00.625Z,0
2023-03-31T01:56:16.805Z,0
2023-03-31T01:57:33.000Z,0
2023-03-31T01:58:49.030Z,0
2023-03-31T02:00:05.220Z,0
2023-03-31T02:01:21.557Z,0
2023-03-31T02:02:36.605Z,0
2023-03-31T02:03:52.939Z,0
2023-03-31T02:05:09.137Z,0
2023-03-31T02:06:25.160Z,0
2023-03-31T02:07:41.515Z,0
2023-03-31T02:08:57.555Z,0
2023-03-31T02:10:13.884Z,0
2023-03-31T02:11:30.080Z,0
2023-03-31T02:12:46.105Z,0
2023-03-31T02:14:02.296Z,0
2023-03-31T02:15:18.474Z,0
2023-03-31T02:16:34.814Z,0
2023-03-31T02:17:51.015Z,0
2023-03-31T02:19:06.050Z,0
2023-03-31T02:20:22.244Z,0
2023-03-31T02:21:38.424Z,0
2023-03-31T02:22:54.782Z,0
2023-03-31T02:24:10.811Z,0
2023-03-31T02:25:27.141Z,0
2023-03-31T02:26:43.332Z,0
2023-03-31T02:27:59.362Z,0
2023-03-31T02:29:15.550Z,0
2023-03-31T02:30:31.904Z,0
2023-03-31T02:31:48.078Z,0
2023-03-31T02:33:04.283Z,0
2023-03-31T02:34:20.305Z,0
2023-03-31T02:35:35.664Z,0
2023-03-31T02:36:51.682Z,0
2023-03-31T02:38:08.044Z,0
2023-03-31T02:39:24.063Z,0
2023-03-31T02:40:40.243Z,0
2023-03-31T02:41:56.451Z,0
2023-03-31T02:43:12.634Z,0
2023-03-31T02:44:28.816Z,0
2023-03-31T02:45:45.157Z,0
2023-03-31T02:47:01.197Z,0
2023-03-31T02:48:17.374Z,0
2023-03-31T02:49:33.730Z,0
2023-03-31T02:50:49.758Z,0
2023-03-31T02:52:04.961Z,0
2023-03-31T02:53:21.147Z,0
2023-03-31T02:54:37.488Z,0
2023-03-31T02:55:53.684Z,0
2023-03-31T02:57:09.704Z,0
2023-03-31T02:58:26.053Z,0
2023-03-31T02:59:42.080Z,0
2023-03-31T03:00:58.433Z,0
2023-03-31T03:02:14.450Z,0
2023-03-31T03:03:30.800Z,0
2023-03-31T03:04:46.993Z,0
2023-03-31T03:06:03.005Z,0
2023-03-31T03:07:19.202Z,0
2023-03-31T03:08:34.405Z,0
2023-03-31T03:09:50.764Z,0
2023-03-31T03:11:06.951Z,0
2023-03-31T03:12:22.961Z,0
2023-03-31T03:13:39.324Z,0
2023-03-31T03:14:55.344Z,0
2023-03-31T03:16:11.693Z,0
2023-03-31T03:17:27.876Z,0
2023-03-31T03:18:43.900Z,0
2023-03-31T03:20:00.252Z,0
2023-03-31T03:21:16.446Z,0
2023-03-31T03:22:32.453Z,0
2023-03-31T03:23:48.651Z,0
2023-03-31T03:25:04.020Z,0
2023-03-31T03:26:20.039Z,0
2023-03-31T03:27:36.386Z,0
2023-03-31T03:28:52.584Z,0
2023-03-31T03:30:08.605Z,0
2023-03-31T03:31:24.778Z,0
2023-03-31T03:32:41.135Z,0
2023-03-31T03:33:57.338Z,0
2023-03-31T03:35:13.517Z,0
2023-03-31T03:36:29.705Z,0
2023-03-31T03:39:02.090Z,0
2023-03-31T03:40:18.268Z,0
2023-03-31T03:41:33.461Z,0
2023-03-31T03:42:49.651Z,0
2023-03-31T03:44:05.679Z,0
2023-03-31T03:45:21.863Z,0
2023-03-31T03:46:38.228Z,0
2023-03-31T03:47:54.400Z,0
2023-03-31T03:49:09.441Z,0
2023-03-31T03:50:25.810Z,0
2023-03-31T03:51:41.997Z,0
2023-03-31T03:52:58.009Z,0
2023-03-31T03:54:14.363Z,0
2023-03-31T03:55:30.370Z,0
2023-03-31T03:56:46.576Z,0
2023-03-31T03:58:02.925Z,0
2023-03-31T03:59:18.947Z,0
2023-03-31T04:00:35.300Z,0
2023-03-31T04:01:51.501Z,0
2023-03-31T04:03:07.672Z,0
2023-03-31T04:04:23.683Z,0
2023-03-31T04:05:39.075Z,0
2023-03-31T04:06:55.266Z,0
2023-03-31T04:08:11.261Z,0
2023-03-31T04:09:27.445Z,0
2023-03-31T04:10:43.811Z,0
2023-03-31T04:11:59.820Z,0
2023-03-31T04:13:16.184Z,0
2023-03-31T04:14:32.375Z,0
2023-03-31T04:15:48.398Z,0
2023-03-31T04:17:04.763Z,0
2023-03-31T04:18:20.943Z,0
2023-03-31T04:19:36.954Z,0
2023-03-31T04:20:53.325Z,0
2023-03-31T04:22:08.349Z,0
2023-03-31T04:23:24.533Z,4
2023-03-31T04:24:40.888Z,0
2023-03-31T04:25:56.906Z,4
2023-03-31T04:27:13.279Z,4
2023-03-31T04:28:29.273Z,8
2023-03-31T04:29:45.652Z,8
2023-03-31T04:31:01.652Z,8
2023-03-31T04:32:18.015Z,12
2023-03-31T04:33:34.201Z,12
2023-03-31T04:34:50.202Z,16
2023-03-31T04:36:06.593Z,24
2023-03-31T04:37:22.770Z,24
2023-03-31T04:38:37.786Z,28
2023-03-31T04:39:54.169Z,32
2023-03-31T04:41:10.343Z,40
2023-03-31T04:42:26.545Z,40
2023-03-31T04:43:42.714Z,44
2023-03-31T04:44:58.906Z,52
2023-03-31T04:46:14.921Z,60
2023-03-31T04:47:31.095Z,68
2023-03-31T04:48:47.479Z,76
2023-03-31T04:50:03.656Z,84
2023-03-31T04:51:19.856Z,92
2023-03-31T04:52:35.856Z,100
2023-03-31T04:53:52.223Z,112
2023-03-31T04:55:07.433Z,124
2023-03-31T04:56:23.613Z,136
2023-03-31T04:57:39.618Z,148
2023-03-31T04:58:55.988Z,152
2023-03-31T05:00:11.988Z,164
2023-03-31T05:01:28.166Z,184
2023-03-31T05:02:44.552Z,208
2023-03-31T05:04:00.740Z,232
2023-03-31T05:05:16.915Z,240
2023-03-31T05:06:33.111Z,244
2023-03-31T05:07:49.297Z,252
2023-03-31T05:09:05.299Z,256
2023-03-31T05:10:21.491Z,268
2023-03-31T05:11:36.868Z,276
2023-03-31T05:12:52.866Z,288
2023-03-31T05:14:09.067Z,296
2023-03-31T05:15:25.438Z,296
2023-03-31T05:16:41.423Z,312
2023-03-31T05:17:57.816Z,324
2023-03-31T05:19:14.009Z,316
2023-03-31T05:20:29.993Z,308
2023-03-31T05:21:46.180Z,332
2023-03-31T05:23:02.558Z,348
2023-03-31T05:24:18.563Z,380
2023-03-31T05:25:34.742Z,420
2023-03-31T05:26:51.120Z,460
2023-03-31T05:28:06.328Z,484
2023-03-31T05:29:22.513Z,528
2023-03-31T05:30:38.703Z,568
2023-03-31T05:31:54.686Z,620
2023-03-31T05:33:11.085Z,644
2023-03-31T05:34:27.258Z,640
2023-03-31T05:35:43.460Z,656
2023-03-31T05:36:59.439Z,696
2023-03-31T05:38:15.622Z,744
2023-03-31T05:39:31.807Z,792
2023-03-31T05:40:48.207Z,840
2023-03-31T05:42:04.190Z,872
2023-03-31T05:43:20.581Z,920
2023-03-31T05:44:35.781Z,936
2023-03-31T05:45:51.959Z,920
2023-03-31T05:47:07.957Z,960
2023-03-31T05:48:24.346Z,1040
2023-03-31T05:49:40.522Z,1144
2023-03-31T05:50:56.510Z,1132
2023-03-31T05:52:12.913Z,1120
2023-03-31T05:53:29.090Z,1124
2023-03-31T05:54:45.078Z,1080
2023-03-31T05:56:01.465Z,960
2023-03-31T05:57:17.649Z,892
2023-03-31T05:58:33.648Z,840
2023-03-31T05:59:50.022Z,792
2023-03-31T06:01:05.029Z,720
2023-03-31T06:02:21.211Z,748
2023-03-31T06:03:37.000Z,752
2023-03-31T06:04:53.786Z,720
2023-03-31T06:06:09.975Z,572
2023-03-31T06:07:25.969Z,544
2023-03-31T06:08:42.356Z,556
2023-03-31T06:09:58.328Z,608
2023-03-31T06:11:14.735Z,624
2023-03-31T06:12:30.910Z,620
2023-03-31T06:13:47.105Z,660
2023-03-31T06:15:03.096Z,724
2023-03-31T06:16:19.268Z,752
2023-03-31T06:17:34.472Z,800
2023-03-31T06:18:50.874Z,880
2023-03-31T06:20:07.068Z,928
2023-03-31T06:21:23.252Z,984
2023-03-31T06:22:39.454Z,1056
2023-03-31T06:23:55.420Z,920
2023-03-31T06:25:11.609Z,844
2023-03-31T06:26:27.994Z,700
2023-03-31T06:27:44.192Z,628
2023-03-31T06:29:00.154Z,608
2023-03-31T06:30:16.563Z,636
2023-03-31T06:31:32.744Z,696
2023-03-31T06:32:48.719Z,748
2023-03-31T06:34:04.144Z,780
2023-03-31T06:35:20.327Z,604
2023-03-31T06:36:36.293Z,640
2023-03-31T06:37:52.706Z,716
2023-03-31T06:39:08.880Z,788
2023-03-31T06:40:24.849Z,812
2023-03-31T06:41:41.055Z,864
2023-03-31T06:42:57.441Z,1040
2023-03-31T06:44:13.628Z,1116
2023-03-31T06:45:29.819Z,1200
2023-03-31T06:46:46.000Z,1332
2023-03-31T06:48:01.980Z,1472
2023-03-31T06:49:18.386Z,1488
2023-03-31T06:50:33.375Z,1480
2023-03-31T06:51:49.782Z,1456
2023-03-31T06:53:05.967Z,1444
2023-03-31T06:54:21.931Z,1452
2023-03-31T06:55:38.120Z,1440
2023-03-31T06:56:54.522Z,1376
2023-03-31T06:58:10.485Z,1308
2023-03-31T06:59:26.900Z,1140
2023-03-31T07:00:43.080Z,1084
2023-03-31T07:01:59.057Z,1172
2023-03-31T07:04:31.420Z,1488
2023-03-31T07:05:47.841Z,1620
2023-03-31T07:07:02.815Z,1796
2023-03-31T07:08:19.226Z,1892
2023-03-31T07:09:35.410Z,1916
2023-03-31T07:10:51.379Z,1848
2023-03-31T07:12:07.799Z,1872
2023-03-31T07:13:23.973Z,1812
2023-03-31T07:14:39.945Z,1728
2023-03-31T07:15:56.129Z,1704
2023-03-31T07:17:12.530Z,1656
2023-03-31T07:18:28.501Z,1572
2023-03-31T07:19:44.691Z,1540
2023-03-31T07:21:00.871Z,1556
2023-03-31T07:22:17.281Z,1664
2023-03-31T07:23:32.496Z,1528
2023-03-31T07:24:48.680Z,1592
2023-03-31T07:26:04.638Z,1704
2023-03-31T07:27:20.828Z,1840
2023-03-31T07:28:37.243Z,1896
2023-03-31T07:29:53.438Z,1864
2023-03-31T07:31:09.392Z,1904
2023-03-31T07:32:25.582Z,1968
2023-03-31T07:33:41.758Z,2040
2023-03-31T07:34:57.953Z,1988
2023-03-31T07:36:14.361Z,1948
2023-03-31T07:37:30.547Z,1796
2023-03-31T07:38:46.511Z,1688
2023-03-31T07:40:01.934Z,1640
2023-03-31T07:41:17.900Z,1592
2023-03-31T07:42:34.307Z,1576
2023-03-31T07:43:50.496Z,1428
2023-03-31T07:45:06.456Z,1364
2023-03-31T07:46:22.646Z,1344
2023-03-31T07:47:39.059Z,1460
2023-03-31T07:48:55.023Z,1532
2023-03-31T07:50:11.434Z,1620
2023-03-31T07:51:27.635Z,1748
2023-03-31T07:52:43.814Z,1892
2023-03-31T07:53:59.777Z,1988
2023-03-31T07:55:16.179Z,2336
2023-03-31T07:56:31.172Z,2600
2023-03-31T07:57:47.342Z,2728
2023-03-31T07:59:03.763Z,2820
2023-03-31T08:00:19.945Z,2988
2023-03-31T08:01:36.147Z,2956
2023-03-31T08:02:52.328Z,2984
2023-03-31T08:04:07.308Z,2976
2023-03-31T08:05:23.733Z,2932
2023-03-31T08:06:39.903Z,3032
2023-03-31T08:07:55.873Z,2984
2023-03-31T08:09:12.288Z,2924
2023-03-31T08:10:28.254Z,2724
2023-03-31T08:11:44.433Z,2628
2023-03-31T08:13:00.848Z,2636
2023-03-31T08:14:17.046Z,2724
2023-03-31T08:15:33.227Z,2804
2023-03-31T08:16:49.187Z,2872
2023-03-31T08:18:05.607Z,2924
2023-03-31T08:19:21.552Z,2972
2023-03-31T08:20:36.988Z,2916
2023-03-31T08:21:52.941Z,2772
2023-03-31T08:23:09.120Z,2620
2023-03-31T08:24:25.553Z,2480
2023-03-31T08:25:41.728Z,2432
2023-03-31T08:26:57.929Z,2460
2023-03-31T08:28:14.117Z,2564
2023-03-31T08:29:30.073Z,2612
2023-03-31T08:30:46.240Z,2760
2023-03-31T08:32:02.680Z,3176
2023-03-31T08:33:18.866Z,3628
2023-03-31T08:34:34.804Z,3476
2023-03-31T08:35:50.990Z,3212
2023-03-31T08:37:06.439Z,3340
2023-03-31T08:38:22.623Z,3624
2023-03-31T08:39:38.805Z,3800
2023-03-31T08:40:55.002Z,3516
2023-03-31T08:42:10.948Z,3612
2023-03-31T08:43:27.366Z,3552
2023-03-31T08:44:43.317Z,3852
2023-03-31T08:45:59.753Z,4044
2023-03-31T08:47:15.691Z,4056
2023-03-31T08:48:31.881Z,3828
2023-03-31T08:49:48.070Z,3468
2023-03-31T08:51:04.499Z,3364
2023-03-31T08:52:20.677Z,3404
2023-03-31T08:53:35.886Z,3408
2023-03-31T08:54:52.084Z,3360
2023-03-31T08:56:08.015Z,3656
2023-03-31T08:57:24.215Z,4044
2023-03-31T08:58:40.635Z,4160
2023-03-31T08:59:56.831Z,4076
2023-03-31T09:01:12.771Z,3644
2023-03-31T09:02:29.190Z,3144
2023-03-31T09:03:45.380Z,2432
2023-03-31T09:05:01.321Z,1924
2023-03-31T09:06:17.756Z,1816
2023-03-31T09:07:33.953Z,1824
2023-03-31T09:08:49.896Z,1984
2023-03-31T09:10:05.096Z,1828
2023-03-31T09:11:21.527Z,1696
2023-03-31T09:12:37.480Z,1960
2023-03-31T09:13:53.660Z,3012
2023-03-31T09:15:10.094Z,4144
2023-03-31T09:16:26.026Z,4228
2023-03-31T09:17:42.211Z,4904
2023-03-31T09:18:58.655Z,5688
2023-03-31T09:20:14.827Z,5168
2023-03-31T09:21:31.019Z,5320
2023-03-31T09:22:47.208Z,6008
2023-03-31T09:24:03.397Z,5876
2023-03-31T09:25:19.589Z,5308
2023-03-31T09:26:34.550Z,4516
2023-03-31T09:27:50.720Z,4416
2023-03-31T09:29:06.921Z,4652
2023-03-31T09:30:23.358Z,3976
2023-03-31T09:31:39.533Z,3552
2023-03-31T09:32:55.716Z,3816
2023-03-31T09:34:11.656Z,4272
2023-03-31T09:35:27.860Z,3792
2023-03-31T09:36:44.047Z,3100
2023-03-31T09:38:00.222Z,2088
2023-03-31T09:39:16.403Z,1572
2023-03-31T09:40:32.600Z,1568
2023-03-31T09:41:49.033Z,1732
2023-03-31T09:43:03.991Z,1816
2023-03-31T09:44:20.435Z,2140
2023-03-31T09:45:36.359Z,2216
2023-03-31T09:46:52.548Z,2548
2023-03-31T09:48:08.997Z,2444
2023-03-31T09:49:25.182Z,2492
2023-03-31T09:50:41.111Z,2552
2023-03-31T09:51:57.311Z,2808
2023-03-31T09:53:13.495Z,2728
2023-03-31T09:54:29.685Z,3632
2023-03-31T09:55:45.879Z,5000
2023-03-31T09:57:02.066Z,6112
2023-03-31T09:58:18.248Z,5484
2023-03-31T09:59:33.454Z,3780
2023-03-31T10:00:49.900Z,2420
2023-03-31T10:02:06.091Z,2156
2023-03-31T10:03:22.021Z,2132
2023-03-31T10:04:38.204Z,2136
2023-03-31T10:05:54.400Z,2624
2023-03-31T10:07:10.836Z,4200
2023-03-31T10:08:27.031Z,4484
2023-03-31T10:09:43.213Z,5164
2023-03-31T10:10:59.162Z,4652
2023-03-31T10:12:15.345Z,2740
2023-03-31T10:13:31.539Z,2004
2023-03-31T10:14:47.965Z,1308
2023-03-31T10:16:03.174Z,760
2023-03-31T10:17:19.105Z,520
2023-03-31T10:18:35.555Z,828
2023-03-31T10:19:51.752Z,1464
2023-03-31T10:21:07.686Z,2344
2023-03-31T10:22:24.114Z,3436
2023-03-31T10:23:40.313Z,4252
2023-03-31T10:24:56.243Z,5180
2023-03-31T10:26:12.436Z,5712
2023-03-31T10:27:28.879Z,5872
2023-03-31T10:28:44.810Z,6028
2023-03-31T10:30:01.005Z,6080
2023-03-31T10:31:17.443Z,6588
2023-03-31T10:32:32.653Z,6728
2023-03-31T10:33:48.849Z,6808
2023-03-31T10:35:05.037Z,6552
2023-03-31T10:36:20.958Z,5644
2023-03-31T10:37:37.399Z,4936
2023-03-31T10:38:53.341Z,3816
2023-03-31T10:40:09.531Z,3608
2023-03-31T10:41:25.974Z,4164
2023-03-31T10:42:41.894Z,4384
2023-03-31T10:43:58.095Z,4212
2023-03-31T10:45:14.545Z,4208
2023-03-31T10:46:30.732Z,3848
2023-03-31T10:47:46.654Z,3024
2023-03-31T10:49:02.119Z,2880
2023-03-31T10:50:18.046Z,2712
2023-03-31T10:51:34.229Z,1980
2023-03-31T10:52:50.434Z,1496
2023-03-31T10:54:06.620Z,1348
2023-03-31T10:55:22.814Z,1388
2023-03-31T10:56:39.250Z,1232
2023-03-31T10:57:55.449Z,924
2023-03-31T10:59:11.361Z,760
2023-03-31T11:00:27.830Z,844
2023-03-31T11:01:44.020Z,772
2023-03-31T11:02:59.930Z,696
2023-03-31T11:04:16.385Z,624
2023-03-31T11:05:31.594Z,884
2023-03-31T11:06:47.523Z,1284
2023-03-31T11:08:03.701Z,1680
2023-03-31T11:09:19.888Z,2148
2023-03-31T11:10:36.343Z,2676
2023-03-31T11:11:52.536Z,3240
2023-03-31T11:13:08.718Z,4140
2023-03-31T11:14:24.651Z,5472
2023-03-31T11:15:41.106Z,6896
2023-03-31T11:16:57.036Z,8052
2023-03-31T11:18:13.488Z,8432
2023-03-31T11:19:29.414Z,8452
2023-03-31T11:20:45.588Z,8196
2023-03-31T11:22:01.066Z,7160
2023-03-31T11:23:17.258Z,5688
2023-03-31T11:24:33.443Z,4840
2023-03-31T11:25:49.637Z,4848
2023-03-31T11:27:05.820Z,4992
2023-03-31T11:28:22.018Z,4864
2023-03-31T11:29:37.922Z,4716
2023-03-31T11:30:54.383Z,4628
2023-03-31T11:32:10.575Z,4532
2023-03-31T11:33:26.495Z,4720
2023-03-31T11:34:42.678Z,5280
2023-03-31T11:35:59.133Z,6060
2023-03-31T11:37:15.055Z,6852
2023-03-31T11:38:30.538Z,7364
2023-03-31T11:39:46.733Z,7456
2023-03-31T11:41:02.649Z,7060
2023-03-31T11:42:19.095Z,6284
2023-03-31T11:43:35.286Z,5404
2023-03-31T11:44:51.209Z,4948
2023-03-31T11:46:07.403Z,5196
2023-03-31T11:47:23.863Z,4880
2023-03-31T11:48:40.053Z,4580
2023-03-31T11:49:56.229Z,4556
2023-03-31T11:51:12.430Z,4468
2023-03-31T11:52:28.617Z,4248
2023-03-31T11:53:44.532Z,4120
2023-03-31T11:54:59.736Z,4164
2023-03-31T11:56:16.193Z,4096
2023-03-31T11:57:32.112Z,3668
2023-03-31T11:58:48.295Z,3360
2023-03-31T12:00:04.501Z,3524
2023-03-31T12:01:20.676Z,3136
2023-03-31T12:02:37.152Z,2828
2023-03-31T12:03:53.329Z,2504
2023-03-31T12:05:09.243Z,1756
2023-03-31T12:06:25.714Z,1636
2023-03-31T12:07:41.633Z,1708
2023-03-31T12:08:58.084Z,1944
2023-03-31T12:10:14.289Z,2848
2023-03-31T12:11:29.220Z,3844
2023-03-31T12:12:45.404Z,4440
2023-03-31T12:14:01.581Z,4268
2023-03-31T12:15:17.771Z,3520
2023-03-31T12:16:34.242Z,2848
2023-03-31T12:17:50.148Z,2612
2023-03-31T12:19:05.642Z,2848
2023-03-31T12:20:21.838Z,3388
2023-03-31T12:21:37.739Z,4456
2023-03-31T12:22:53.926Z,6140
2023-03-31T12:24:10.115Z,6504
2023-03-31T12:25:26.585Z,6352
2023-03-31T12:26:42.778Z,6060
2023-03-31T12:27:58.973Z,5456
2023-03-31T12:29:14.863Z,4832
2023-03-31T12:30:31.070Z,4324
2023-03-31T12:31:47.253Z,3912
2023-03-31T12:33:03.724Z,3452
2023-03-31T12:34:19.914Z,2608
2023-03-31T12:35:34.841Z,1352
2023-03-31T12:36:51.031Z,1144
2023-03-31T12:38:07.496Z,1644
2023-03-31T12:39:23.407Z,2080
2023-03-31T12:40:39.591Z,2288
2023-03-31T12:41:56.070Z,2624
2023-03-31T12:43:12.258Z,2748
2023-03-31T12:44:28.159Z,2692
2023-03-31T12:45:44.355Z,2376
2023-03-31T12:47:00.537Z,2036
2023-03-31T12:48:17.017Z,1756
2023-03-31T12:49:32.923Z,1720
2023-03-31T12:50:49.388Z,1916
2023-03-31T12:52:05.693Z,2192
2023-03-31T12:53:21.596Z,2200
2023-03-31T12:54:37.781Z,2112
2023-03-31T12:55:53.988Z,1996
2023-03-31T12:57:10.464Z,1832
2023-03-31T12:58:26.353Z,1792
2023-03-31T12:59:42.553Z,1780
2023-03-31T13:00:58.732Z,1740
2023-03-31T13:02:14.912Z,1716
2023-03-31T13:03:31.117Z,1752
2023-03-31T13:04:47.312Z,1812
2023-03-31T13:06:03.482Z,1884
2023-03-31T13:07:19.971Z,1956
2023-03-31T13:08:35.164Z,2048
2023-03-31T13:09:51.366Z,2164
2023-03-31T13:11:07.270Z,2268
2023-03-31T13:12:23.744Z,2324
2023-03-31T13:13:39.935Z,2320
2023-03-31T13:14:55.831Z,2268
2023-03-31T13:16:12.022Z,2196
2023-03-31T13:17:28.204Z,2160
2023-03-31T13:18:44.684Z,2064
2023-03-31T13:20:00.867Z,1892
2023-03-31T13:21:16.761Z,1592
2023-03-31T13:22:32.954Z,1404
2023-03-31T13:23:49.138Z,1476
2023-03-31T13:25:04.645Z,1488
2023-03-31T13:26:20.826Z,772
2023-03-31T13:27:36.730Z,880
2023-03-31T13:28:53.218Z,1436
2023-03-31T13:30:09.115Z,1100
2023-03-31T13:31:25.293Z,852
2023-03-31T13:32:41.490Z,1080
2023-03-31T13:33:57.976Z,952
2023-03-31T13:35:13.856Z,884
2023-03-31T13:36:30.347Z,900
2023-03-31T13:37:46.239Z,1016
2023-03-31T13:39:02.433Z,1116
2023-03-31T13:40:18.611Z,1204
2023-03-31T13:41:34.125Z,1332
2023-03-31T13:42:50.012Z,1596
2023-03-31T13:44:06.503Z,1656
2023-03-31T13:45:22.682Z,1716
2023-03-31T13:46:38.578Z,1488
2023-03-31T13:47:55.071Z,1412
2023-03-31T13:49:11.262Z,1576
2023-03-31T13:50:27.445Z,1516
2023-03-31T13:51:43.627Z,1728
2023-03-31T13:52:59.514Z,1816
2023-03-31T13:54:15.713Z,1860
2023-03-31T13:55:32.189Z,1840
2023-03-31T13:56:48.384Z,1820
2023-03-31T13:58:03.600Z,1788
2023-03-31T13:59:19.481Z,1720
2023-03-31T14:00:35.682Z,1684
2023-03-31T14:01:52.161Z,1600
2023-03-31T14:03:08.355Z,1528
2023-03-31T14:04:24.543Z,1564
2023-03-31T14:05:40.428Z,1464
2023-03-31T14:06:56.907Z,1548
2023-03-31T14:08:13.108Z,1460
2023-03-31T14:09:29.005Z,1188
2023-03-31T14:10:45.487Z,1092
2023-03-31T14:12:01.677Z,792
2023-03-31T14:13:17.867Z,1312
2023-03-31T14:14:32.773Z,1128
2023-03-31T14:15:49.262Z,1340
2023-03-31T14:17:05.455Z,1240
2023-03-31T14:18:21.333Z,1244
2023-03-31T14:19:37.830Z,1116
2023-03-31T14:20:54.007Z,1024
2023-03-31T14:22:10.200Z,864
2023-03-31T14:23:26.399Z,1128
2023-03-31T14:24:42.280Z,1380
2023-03-31T14:25:58.758Z,1464
2023-03-31T14:27:14.647Z,1492
2023-03-31T14:28:31.139Z,1480
2023-03-31T14:29:47.041Z,1464
2023-03-31T14:31:02.235Z,1452
2023-03-31T14:32:18.425Z,1432
2023-03-31T14:33:34.915Z,1404
2023-03-31T14:34:51.116Z,1364
2023-03-31T14:36:07.298Z,1316
2023-03-31T14:37:23.482Z,1172
2023-03-31T14:38:39.669Z,1168
2023-03-31T14:39:55.563Z,1088
2023-03-31T14:41:12.044Z,864
2023-03-31T14:42:28.243Z,1076
2023-03-31T14:43:44.119Z,1108
2023-03-31T14:45:00.306Z,1132
2023-03-31T14:46:16.504Z,1064
2023-03-31T14:47:31.704Z,912
2023-03-31T14:48:48.205Z,792
2023-03-31T14:50:04.390Z,856
2023-03-31T14:51:20.528Z,732
2023-03-31T14:52:36.720Z,484
2023-03-31T14:53:52.948Z,476
2023-03-31T14:55:09.137Z,480
2023-03-31T14:56:25.291Z,452
2023-03-31T14:57:41.528Z,508
2023-03-31T14:58:57.707Z,616
2023-03-31T15:00:13.846Z,532
2023-03-31T15:01:30.083Z,488
2023-03-31T15:02:46.238Z,520
2023-03-31T15:04:01.432Z,648
2023-03-31T15:05:17.683Z,668
2023-03-31T15:06:33.870Z,816
2023-03-31T15:07:50.061Z,1004
2023-03-31T15:09:06.188Z,1072
2023-03-31T15:10:22.372Z,1100
2023-03-31T15:11:38.573Z,1124
2023-03-31T15:12:54.762Z,1136
2023-03-31T15:14:10.939Z,1148
2023-03-31T15:15:27.197Z,1160
2023-03-31T15:16:43.370Z,1160
2023-03-31T15:17:59.519Z,1156
2023-03-31T15:19:15.754Z,1152
2023-03-31T15:20:30.962Z,1128
2023-03-31T15:21:47.087Z,1068
2023-03-31T15:23:03.343Z,1084
2023-03-31T15:24:19.476Z,1112
2023-03-31T15:25:35.668Z,1128
2023-03-31T15:26:51.850Z,1120
2023-03-31T15:28:08.084Z,1108
2023-03-31T15:29:24.222Z,1100
2023-03-31T15:30:40.472Z,1112
2023-03-31T15:31:56.653Z,1104
2023-03-31T15:33:12.795Z,1100
2023-03-31T15:34:28.986Z,1076
2023-03-31T15:35:45.178Z,1068
2023-03-31T15:37:00.437Z,1096
2023-03-31T15:38:16.628Z,1120
2023-03-31T15:39:32.755Z,1128
2023-03-31T15:40:48.942Z,1136
2023-03-31T15:42:05.190Z,1100
2023-03-31T15:43:21.369Z,996
2023-03-31T15:44:37.497Z,980
2023-03-31T15:45:53.685Z,732
2023-03-31T15:47:09.879Z,904
2023-03-31T15:48:26.130Z,968
2023-03-31T15:49:42.252Z,780
2023-03-31T15:50:58.522Z,624
2023-03-31T15:52:14.706Z,580
2023-03-31T15:53:29.854Z,544
2023-03-31T15:54:46.094Z,572
2023-03-31T15:56:02.288Z,692
2023-03-31T15:57:18.476Z,772
2023-03-31T15:58:34.672Z,948
2023-03-31T15:59:50.793Z,1004
2023-03-31T16:01:07.046Z,1072
2023-03-31T16:02:23.173Z,1072
2023-03-31T16:03:39.361Z,1052
2023-03-31T16:04:55.613Z,1020
2023-03-31T16:06:11.786Z,976
2023-03-31T16:07:27.914Z,932
2023-03-31T16:08:44.165Z,900
2023-03-31T16:09:59.374Z,872
2023-03-31T16:11:15.504Z,832
2023-03-31T16:12:31.693Z,788
2023-03-31T16:13:47.875Z,716
2023-03-31T16:15:04.059Z,616
2023-03-31T16:16:20.264Z,652
2023-03-31T16:17:36.504Z,680
2023-03-31T16:18:52.640Z,676
2023-03-31T16:20:08.885Z,668
2023-03-31T16:21:25.078Z,592
2023-03-31T16:22:41.269Z,516
2023-03-31T16:23:57.447Z,484
2023-03-31T16:25:13.578Z,440
2023-03-31T16:26:28.778Z,544
2023-03-31T16:27:44.964Z,564
2023-03-31T16:29:01.168Z,560
2023-03-31T16:30:17.416Z,552
2023-03-31T16:31:33.615Z,548
2023-03-31T16:32:49.804Z,548
2023-03-31T16:34:04.930Z,544
2023-03-31T16:35:21.129Z,536
2023-03-31T16:36:37.396Z,528
2023-03-31T16:37:53.507Z,520
2023-03-31T16:39:09.772Z,508
2023-03-31T16:40:25.891Z,500
2023-03-31T16:41:42.063Z,484
2023-03-31T16:42:58.337Z,468
2023-03-31T16:44:14.511Z,460
2023-03-31T16:45:30.712Z,448
2023-03-31T16:46:46.900Z,436
2023-03-31T16:48:03.081Z,428
2023-03-31T16:49:19.203Z,416
2023-03-31T16:50:34.402Z,400
2023-03-31T16:51:50.666Z,400
2023-03-31T16:53:06.785Z,392
2023-03-31T16:54:22.983Z,388
2023-03-31T16:55:39.161Z,380
2023-03-31T16:56:55.355Z,372
2023-03-31T16:58:11.612Z,360
2023-03-31T16:59:27.800Z,348
2023-03-31T17:00:44.002Z,336
2023-03-31T17:02:00.104Z,328
2023-03-31T17:03:16.289Z,316
2023-03-31T17:04:32.483Z,308
2023-03-31T17:05:48.744Z,304
2023-03-31T17:07:03.948Z,296
2023-03-31T17:08:20.155Z,292
2023-03-31T17:09:36.339Z,280
2023-03-31T17:10:52.441Z,272
2023-03-31T17:12:08.624Z,264
2023-03-31T17:13:24.901Z,256
2023-03-31T17:14:41.094Z,248
2023-03-31T17:15:57.191Z,232
2023-03-31T17:17:13.380Z,208
2023-03-31T17:18:29.663Z,188
2023-03-31T17:19:45.839Z,172
2023-03-31T17:21:02.044Z,172
2023-03-31T17:22:18.142Z,168
2023-03-31T17:23:33.360Z,160
2023-03-31T17:24:49.615Z,140
2023-03-31T17:26:05.803Z,120
2023-03-31T17:27:21.920Z,108
2023-03-31T17:28:38.100Z,96
2023-03-31T17:29:54.376Z,88
2023-03-31T17:31:10.570Z,84
2023-03-31T17:32:26.758Z,72